createdAt,value
2022-09-18T00:01:41.541Z,59.63
2022-09-18T00:04:14.129Z,63.45
2022-09-18T00:06:46.031Z,65.50
2022-09-18T00:09:15.764Z,62.27
2022-09-18T00:11:48.511Z,61.36
2022-09-18T00:14:28.458Z,61.81
2022-09-18T00:16:59.585Z,58.01
2022-09-18T00:19:27.745Z,56.14
2022-09-18T00:21:56.707Z,56.66
2022-09-18T00:24:25.072Z,57.66
2022-09-18T00:26:53.574Z,58.53
2022-09-18T00:29:22.561Z,59.37
2022-09-18T00:31:51.035Z,60.23
2022-09-18T00:34:19.412Z,64.52
2022-09-18T00:36:47.582Z,66.07
2022-09-18T00:39:16.431Z,63.99
2022-09-18T00:41:45.163Z,62.67
2022-09-18T00:44:34.967Z,61.77
2022-09-18T00:47:12.333Z,61.30
2022-09-18T00:49:43.003Z,60.70
2022-09-18T00:52:14.221Z,58.78
2022-09-18T00:54:47.647Z,57.31
2022-09-18T00:57:23.774Z,57.96
2022-09-18T00:59:53.370Z,58.77
2022-09-18T01:02:22.452Z,60.27
2022-09-18T01:04:51.470Z,63.51
2022-09-18T01:07:32.268Z,65.70
2022-09-18T01:10:25.605Z,67.41
2022-09-18T01:13:02.694Z,64.96
2022-09-18T01:15:43.419Z,61.05
2022-09-18T01:18:27.107Z,56.00
2022-09-18T01:21:07.447Z,57.04
2022-09-18T01:23:56.715Z,59.55
2022-09-18T01:26:33.800Z,62.12
2022-09-18T01:29:19.382Z,63.76
2022-09-18T01:31:56.469Z,63.55
2022-09-18T01:34:49.998Z,61.40
2022-09-18T01:37:21.078Z,60.80
2022-09-18T01:40:00.672Z,58.87
2022-09-18T01:42:31.231Z,58.55
2022-09-18T01:45:02.221Z,58.73
2022-09-18T01:47:38.241Z,61.96
2022-09-18T01:50:10.030Z,65.87
2022-09-18T01:52:47.633Z,64.15
2022-09-18T01:55:21.277Z,61.93
2022-09-18T01:58:00.940Z,57.94
2022-09-18T02:00:32.092Z,56.70
2022-09-18T02:03:10.990Z,57.41
2022-09-18T02:05:52.496Z,60.56
2022-09-18T02:08:27.794Z,63.40
2022-09-18T02:11:08.924Z,65.75
2022-09-18T02:13:45.277Z,61.50
2022-09-18T02:16:25.407Z,58.47
2022-09-18T02:18:57.506Z,58.07
2022-09-18T02:21:31.213Z,60.34
2022-09-18T02:24:05.908Z,60.79
2022-09-18T02:26:38.452Z,64.60
2022-09-18T02:29:10.251Z,65.98
2022-09-18T02:31:40.244Z,62.67
2022-09-18T02:34:11.473Z,61.62
2022-09-18T02:36:53.935Z,58.36
2022-09-18T02:39:43.622Z,57.98
2022-09-18T02:42:22.770Z,59.99
2022-09-18T02:45:10.450Z,62.75
2022-09-18T02:47:41.015Z,64.05
2022-09-18T02:50:16.151Z,60.97
2022-09-18T02:53:06.261Z,57.95
2022-09-18T02:55:53.634Z,55.88
2022-09-18T02:58:29.560Z,57.07
2022-09-18T03:01:02.230Z,58.98
2022-09-18T03:03:33.802Z,60.29
2022-09-18T03:06:08.917Z,64.17
2022-09-18T03:08:38.306Z,66.06
2022-09-18T03:11:06.977Z,65.23
2022-09-18T03:13:35.176Z,61.89
2022-09-18T03:16:04.326Z,61.38
2022-09-18T03:18:32.508Z,59.23
2022-09-18T03:21:01.108Z,56.61
2022-09-18T03:23:29.289Z,56.80
2022-09-18T03:26:09.135Z,58.65
2022-09-18T03:28:37.721Z,60.23
2022-09-18T03:31:06.493Z,62.94
2022-09-18T03:33:35.092Z,63.60
2022-09-18T03:36:06.086Z,63.21
2022-09-18T03:38:35.015Z,64.00
2022-09-18T03:41:03.566Z,62.13
2022-09-18T03:43:31.917Z,61.46
2022-09-18T03:46:01.250Z,58.36
2022-09-18T03:48:29.865Z,56.95
2022-09-18T03:50:58.972Z,59.02
2022-09-18T03:53:27.131Z,61.94
2022-09-18T03:56:27.679Z,63.86
2022-09-18T03:58:55.754Z,63.69
2022-09-18T04:01:59.616Z,64.07
2022-09-18T04:04:28.865Z,60.55
2022-09-18T04:07:14.735Z,57.49
2022-09-18T04:10:23.018Z,57.90
2022-09-18T04:12:51.447Z,59.39
2022-09-18T04:15:24.825Z,61.71
2022-09-18T04:17:53.205Z,64.22
2022-09-18T04:20:21.690Z,64.95
2022-09-18T04:22:50.165Z,64.67
2022-09-18T04:25:18.757Z,63.64
2022-09-18T04:27:47.643Z,62.16
2022-09-18T04:30:16.536Z,58.63
2022-09-18T04:32:45.983Z,56.76
2022-09-18T04:35:14.308Z,59.93
2022-09-18T04:37:45.577Z,62.49
2022-09-18T04:40:13.926Z,66.16
2022-09-18T04:42:42.726Z,65.10
2022-09-18T04:45:11.631Z,62.71
2022-09-18T04:47:41.368Z,62.41
2022-09-18T04:50:11.254Z,60.00
2022-09-18T04:53:01.035Z,57.87
2022-09-18T04:55:30.223Z,56.92
2022-09-18T04:57:59.537Z,58.11
2022-09-18T05:00:29.372Z,59.33
2022-09-18T05:02:59.118Z,63.39
2022-09-18T05:05:29.394Z,65.26
2022-09-18T05:08:03.839Z,64.63
2022-09-18T05:10:33.950Z,58.78
2022-09-18T05:13:06.398Z,59.16
2022-09-18T05:15:35.792Z,61.70
2022-09-18T05:18:11.259Z,64.39
2022-09-18T05:20:40.327Z,66.75
2022-09-18T05:23:09.853Z,63.78
2022-09-18T05:25:38.323Z,62.09
2022-09-18T05:28:06.697Z,60.93
2022-09-18T05:30:42.615Z,59.02
2022-09-18T05:33:11.512Z,60.40
2022-09-18T05:35:42.378Z,63.45
2022-09-18T05:38:11.892Z,63.09
2022-09-18T05:40:44.814Z,60.68
2022-09-18T05:43:13.874Z,59.31
2022-09-18T05:45:45.258Z,60.94
2022-09-18T05:48:25.266Z,63.60
2022-09-18T05:50:53.964Z,63.63
2022-09-18T05:53:22.851Z,62.57
2022-09-18T05:56:01.892Z,61.37
2022-09-18T05:58:31.888Z,59.89
2022-09-18T06:01:02.213Z,60.27
2022-09-18T06:03:38.814Z,62.97
2022-09-18T06:06:08.326Z,63.83
2022-09-18T06:08:43.671Z,62.66
2022-09-18T06:11:16.518Z,62.77
2022-09-18T06:13:49.510Z,62.93
2022-09-18T06:16:20.394Z,63.66
2022-09-18T06:18:57.423Z,64.88
2022-09-18T06:21:29.016Z,65.61
2022-09-18T06:23:59.300Z,65.70
2022-09-18T06:26:40.088Z,65.58
2022-09-18T06:29:10.677Z,65.58
2022-09-18T06:31:47.539Z,66.27
2022-09-18T06:34:23.718Z,65.94
2022-09-18T06:36:53.904Z,65.05
2022-09-18T06:39:30.431Z,63.35
2022-09-18T06:42:01.040Z,63.42
2022-09-18T06:44:51.306Z,64.16
2022-09-18T06:47:26.953Z,63.61
2022-09-18T06:50:01.861Z,62.96
2022-09-18T06:52:33.558Z,62.52
2022-09-18T06:55:06.950Z,63.62
2022-09-18T06:57:41.228Z,63.60
2022-09-18T07:00:14.570Z,63.42
2022-09-18T07:02:46.193Z,63.26
2022-09-18T07:05:42.453Z,64.32
2022-09-18T07:08:12.957Z,64.63
2022-09-18T07:10:42.278Z,64.09
2022-09-18T07:13:10.941Z,64.10
2022-09-18T07:15:48.273Z,64.35
2022-09-18T07:18:17.388Z,65.49
2022-09-18T07:20:47.040Z,65.10
2022-09-18T07:23:17.169Z,64.71
2022-09-18T07:25:49.868Z,65.22
2022-09-18T07:28:19.420Z,65.09
2022-09-18T07:30:57.004Z,63.87
2022-09-18T07:33:27.920Z,62.86
2022-09-18T07:36:03.455Z,63.33
2022-09-18T07:38:34.696Z,62.99
2022-09-18T07:41:07.617Z,63.91
2022-09-18T07:43:41.711Z,64.59
2022-09-18T07:46:11.821Z,64.02
2022-09-18T07:48:40.643Z,63.93
2022-09-18T07:51:26.285Z,64.05
2022-09-18T07:53:57.967Z,63.82
2022-09-18T07:56:37.897Z,64.18
2022-09-18T07:59:07.331Z,64.23
2022-09-18T08:01:36.114Z,63.79
2022-09-18T08:04:07.778Z,63.04
2022-09-18T08:06:38.124Z,63.70
2022-09-18T08:09:24.227Z,65.53
2022-09-18T08:11:57.039Z,66.04
2022-09-18T08:15:00.218Z,65.91
2022-09-18T08:17:48.581Z,65.14
2022-09-18T08:20:32.698Z,64.75
2022-09-18T08:23:15.933Z,65.66
2022-09-18T08:25:45.159Z,66.02
2022-09-18T08:28:15.973Z,65.96
2022-09-18T08:31:00.454Z,67.10
2022-09-18T08:33:29.579Z,67.01
2022-09-18T08:35:59.555Z,67.47
2022-09-18T08:38:35.372Z,67.48
2022-09-18T08:42:16.645Z,67.71
2022-09-18T08:44:56.386Z,67.52
2022-09-18T08:47:34.833Z,67.40
2022-09-18T08:50:11.064Z,68.25
2022-09-18T08:52:45.790Z,68.01
2022-09-18T08:55:35.260Z,68.66
2022-09-18T08:58:49.241Z,68.68
2022-09-18T09:01:20.154Z,68.83
2022-09-18T09:04:16.412Z,68.76
2022-09-18T09:06:50.909Z,69.22
2022-09-18T09:09:46.290Z,69.22
2022-09-18T09:12:24.764Z,69.42
2022-09-18T09:15:05.707Z,68.96
2022-09-18T09:17:49.187Z,68.67
2022-09-18T09:20:30.141Z,69.26
2022-09-18T09:23:06.591Z,68.54
2022-09-18T09:26:00.570Z,67.97
2022-09-18T09:29:18.080Z,68.80
2022-09-18T09:32:29.883Z,69.96
2022-09-18T09:35:16.714Z,69.91
2022-09-18T09:38:07.818Z,70.11
2022-09-18T09:40:48.296Z,70.28
2022-09-18T09:43:33.388Z,70.44
2022-09-18T09:46:49.683Z,70.67
2022-09-18T09:49:28.430Z,70.96
2022-09-18T09:52:27.225Z,69.92
2022-09-18T09:55:25.445Z,70.33
2022-09-18T09:57:55.458Z,70.54
2022-09-18T10:00:24.041Z,70.01
2022-09-18T10:03:21.618Z,68.71
2022-09-18T10:06:07.093Z,67.72
2022-09-18T10:09:00.192Z,67.08
2022-09-18T10:11:33.273Z,66.69
2022-09-18T10:14:19.405Z,66.73
2022-09-18T10:16:55.041Z,67.19
2022-09-18T10:19:39.850Z,67.92
2022-09-18T10:22:13.080Z,67.40
2022-09-18T10:25:06.534Z,66.66
2022-09-18T10:27:35.975Z,65.99
2022-09-18T10:30:15.867Z,65.53
2022-09-18T10:32:55.010Z,65.55
2022-09-18T10:35:31.789Z,65.51
2022-09-18T10:38:01.577Z,65.10
2022-09-18T10:40:40.545Z,64.05
2022-09-18T10:43:18.940Z,63.71
2022-09-18T10:45:55.195Z,63.80
2022-09-18T10:48:44.561Z,63.48
2022-09-18T10:51:21.724Z,63.26
2022-09-18T10:54:09.227Z,62.81
2022-09-18T10:56:54.239Z,62.16
2022-09-18T10:59:30.298Z,62.57
2022-09-18T11:02:02.572Z,61.91
2022-09-18T11:04:33.538Z,61.72
2022-09-18T11:07:07.989Z,61.65
2022-09-18T11:09:41.528Z,61.06
2022-09-18T11:12:24.270Z,60.82
2022-09-18T11:15:22.819Z,60.46
2022-09-18T11:17:55.645Z,59.88
2022-09-18T11:20:32.172Z,59.48
2022-09-18T11:23:25.743Z,61.89
2022-09-18T11:26:17.196Z,63.15
2022-09-18T11:29:03.139Z,61.25
2022-09-18T11:31:59.276Z,60.17
2022-09-18T11:34:39.577Z,59.47
2022-09-18T11:37:17.489Z,60.02
2022-09-18T11:39:55.375Z,62.42
2022-09-18T11:42:25.211Z,62.68
2022-09-18T11:44:55.118Z,60.93
2022-09-18T11:47:36.990Z,58.55
2022-09-18T11:50:24.473Z,60.17
2022-09-18T11:53:05.070Z,62.59
2022-09-18T11:55:56.201Z,61.92
2022-09-18T11:58:28.165Z,60.69
2022-09-18T12:01:39.861Z,60.53
2022-09-18T12:04:22.157Z,59.66
2022-09-18T12:06:56.588Z,59.59
2022-09-18T12:09:40.378Z,61.55
2022-09-18T12:12:33.663Z,62.78
2022-09-18T12:15:10.809Z,60.52
2022-09-18T12:17:52.195Z,59.81
2022-09-18T12:20:23.760Z,59.17
2022-09-18T12:22:56.017Z,60.53
2022-09-18T12:25:45.105Z,62.55
2022-09-18T12:28:49.584Z,61.86
2022-09-18T12:31:27.025Z,59.93
2022-09-18T12:34:03.277Z,58.60
2022-09-18T12:37:05.883Z,60.10
2022-09-18T12:39:57.806Z,61.11
2022-09-18T12:43:06.791Z,61.90
2022-09-18T12:46:29.629Z,56.23
2022-09-18T12:49:31.562Z,56.22
2022-09-18T12:52:23.072Z,55.12
2022-09-18T12:55:40.596Z,56.31
2022-09-18T12:58:41.683Z,57.64
2022-09-18T13:01:46.886Z,56.32
2022-09-18T13:04:24.188Z,55.44
2022-09-18T13:07:19.390Z,56.05
2022-09-18T13:10:27.753Z,56.00
2022-09-18T13:13:19.017Z,55.98
2022-09-18T13:15:50.411Z,56.14
2022-09-18T13:18:34.442Z,56.47
2022-09-18T13:21:12.109Z,55.33
2022-09-18T13:23:44.487Z,55.97
2022-09-18T13:26:16.676Z,55.45
2022-09-18T13:28:46.541Z,55.02
2022-09-18T13:31:30.558Z,55.79
2022-09-18T13:34:01.471Z,55.61
2022-09-18T13:36:35.132Z,55.13
2022-09-18T13:39:25.225Z,55.74
2022-09-18T13:41:58.888Z,56.52
2022-09-18T13:44:33.120Z,56.36
2022-09-18T13:47:17.236Z,56.33
2022-09-18T13:49:56.530Z,57.03
2022-09-18T13:52:33.245Z,56.96
2022-09-18T13:55:16.486Z,57.03
2022-09-18T13:57:50.864Z,57.00
2022-09-18T14:00:23.711Z,56.56
2022-09-18T14:03:13.565Z,54.97
2022-09-18T14:05:45.523Z,53.91
2022-09-18T14:08:24.271Z,53.41
2022-09-18T14:11:15.907Z,54.09
2022-09-18T14:13:57.188Z,55.44
2022-09-18T14:16:39.483Z,56.44
2022-09-18T14:19:33.122Z,59.72
2022-09-18T14:22:03.759Z,61.89
2022-09-18T14:24:59.040Z,62.97
2022-09-18T14:28:00.077Z,60.05
2022-09-18T14:30:37.501Z,58.39
2022-09-18T14:33:19.952Z,59.49
2022-09-18T14:35:59.403Z,60.36
2022-09-18T14:38:38.722Z,60.60
2022-09-18T14:41:20.881Z,60.63
2022-09-18T14:44:03.232Z,60.77
2022-09-18T14:46:34.050Z,60.61
2022-09-18T14:49:05.636Z,61.08
2022-09-18T14:52:03.104Z,61.44
2022-09-18T14:54:40.856Z,61.35
2022-09-18T14:57:16.198Z,60.83
2022-09-18T14:59:59.263Z,60.24
2022-09-18T15:02:39.615Z,60.16
2022-09-18T15:05:17.321Z,59.08
2022-09-18T15:07:57.249Z,58.45
2022-09-18T15:10:35.605Z,59.18
2022-09-18T15:13:16.041Z,59.78
2022-09-18T15:16:06.423Z,60.18
2022-09-18T15:18:44.016Z,60.27
2022-09-18T15:21:32.885Z,60.21
2022-09-18T15:24:07.441Z,59.26
2022-09-18T15:26:59.923Z,58.31
2022-09-18T15:29:53.570Z,56.96
2022-09-18T15:32:38.463Z,57.66
2022-09-18T15:35:25.942Z,58.11
2022-09-18T15:38:23.483Z,58.50
2022-09-18T15:41:40.248Z,58.80
2022-09-18T15:44:33.864Z,58.62
2022-09-18T15:47:29.692Z,59.28
2022-09-18T15:50:21.878Z,59.63
2022-09-18T15:53:01.672Z,60.21
2022-09-18T15:55:54.252Z,60.55
2022-09-18T15:58:38.109Z,61.16
2022-09-18T16:01:22.619Z,61.40
2022-09-18T16:04:25.569Z,61.61
2022-09-18T16:07:05.445Z,61.67
2022-09-18T16:09:45.187Z,61.90
2022-09-18T16:12:33.812Z,62.03
2022-09-18T16:15:22.463Z,62.38
2022-09-18T16:18:35.162Z,62.82
2022-09-18T16:21:16.565Z,58.10
2022-09-18T16:24:02.952Z,57.53
2022-09-18T16:26:49.645Z,58.33
2022-09-18T16:29:39.843Z,59.28
2022-09-18T16:32:21.883Z,59.89
2022-09-18T16:34:56.867Z,61.02
2022-09-18T16:37:28.870Z,61.65
2022-09-18T16:40:02.469Z,63.09
2022-09-18T16:42:36.380Z,60.29
2022-09-18T16:45:08.762Z,58.43
2022-09-18T16:47:47.427Z,59.58
2022-09-18T16:50:21.275Z,61.16
2022-09-18T16:52:53.904Z,61.99
2022-09-18T16:55:26.174Z,62.79
2022-09-18T16:57:59.535Z,61.63
2022-09-18T17:00:31.533Z,58.99
2022-09-18T17:03:01.392Z,59.34
2022-09-18T17:05:31.167Z,60.67
2022-09-18T17:08:00.803Z,61.92
2022-09-18T17:10:34.470Z,63.52
2022-09-18T17:13:04.879Z,61.97
2022-09-18T17:15:35.695Z,60.75
2022-09-18T17:18:04.779Z,58.33
2022-09-18T17:20:35.103Z,58.64
2022-09-18T17:23:05.411Z,60.06
2022-09-18T17:25:35.428Z,61.43
2022-09-18T17:28:05.950Z,63.02
2022-09-18T17:30:35.923Z,61.59
2022-09-18T17:33:20.361Z,60.77
2022-09-18T17:35:51.047Z,59.03
2022-09-18T17:38:20.723Z,58.86
2022-09-18T17:41:01.459Z,59.34
2022-09-18T17:43:33.693Z,60.86
2022-09-18T17:46:09.717Z,63.28
2022-09-18T17:48:40.733Z,63.03
2022-09-18T17:51:14.447Z,63.24
2022-09-18T17:53:50.522Z,61.94
2022-09-18T17:56:22.621Z,64.15
2022-09-18T17:58:54.997Z,63.16
2022-09-18T18:01:31.682Z,59.45
2022-09-18T18:04:03.340Z,56.22
2022-09-18T18:06:34.766Z,56.07
2022-09-18T18:09:12.219Z,57.05
2022-09-18T18:11:48.450Z,59.00
2022-09-18T18:14:38.841Z,60.49
2022-09-18T18:17:17.529Z,64.20
2022-09-18T18:19:51.811Z,67.05
2022-09-18T18:22:23.924Z,62.86
2022-09-18T18:24:57.251Z,62.06
2022-09-18T18:27:34.710Z,59.01
2022-09-18T18:30:10.543Z,57.16
2022-09-18T18:32:44.727Z,57.51
2022-09-18T18:35:16.306Z,59.57
2022-09-18T18:37:48.087Z,63.51
2022-09-18T18:40:19.982Z,66.05
2022-09-18T18:42:51.601Z,63.63
2022-09-18T18:45:24.908Z,58.66
2022-09-18T18:48:09.286Z,56.69
2022-09-18T18:50:44.941Z,59.64
2022-09-18T18:53:28.784Z,60.46
2022-09-18T18:56:32.646Z,64.41
2022-09-18T18:59:06.522Z,64.55
2022-09-18T19:01:39.943Z,62.32
2022-09-18T19:04:26.521Z,59.23
2022-09-18T19:07:19.976Z,58.45
2022-09-18T19:09:53.295Z,59.31
2022-09-18T19:12:24.112Z,61.96
2022-09-18T19:14:54.239Z,64.12
2022-09-18T19:17:28.512Z,64.21
2022-09-18T19:20:02.189Z,61.82
2022-09-18T19:22:34.423Z,63.83
2022-09-18T19:25:09.304Z,61.61
2022-09-18T19:27:42.417Z,60.92
2022-09-18T19:30:13.191Z,58.98
2022-09-18T19:32:43.441Z,57.90
2022-09-18T19:35:12.720Z,59.32
2022-09-18T19:37:43.098Z,59.59
2022-09-18T19:40:18.187Z,63.35
2022-09-18T19:42:57.587Z,64.16
2022-09-18T19:45:30.320Z,64.02
2022-09-18T19:47:58.949Z,62.90
2022-09-18T19:50:31.339Z,62.30
2022-09-18T19:53:01.349Z,62.27
2022-09-18T19:55:31.157Z,61.10
2022-09-18T19:58:00.462Z,60.50
2022-09-18T20:00:31.622Z,60.31
2022-09-18T20:03:01.006Z,58.33
2022-09-18T20:05:30.816Z,57.09
2022-09-18T20:08:02.064Z,58.04
2022-09-18T20:10:32.184Z,59.11
2022-09-18T20:13:01.162Z,63.92
2022-09-18T20:15:30.055Z,65.50
2022-09-18T20:17:58.863Z,64.83
2022-09-18T20:20:28.989Z,62.71
2022-09-18T20:22:59.424Z,62.25
2022-09-18T20:25:30.477Z,60.16
2022-09-18T20:27:59.848Z,57.56
2022-09-18T20:33:13.603Z,57.50
2022-09-18T20:35:44.130Z,58.76
2022-09-18T20:38:12.985Z,59.94
2022-09-18T20:40:42.943Z,64.95
2022-09-18T20:43:12.325Z,66.52
2022-09-18T20:45:41.400Z,63.81
2022-09-18T20:48:10.456Z,62.55
2022-09-18T20:50:40.233Z,61.29
2022-09-18T20:53:09.410Z,60.43
2022-09-18T20:55:37.631Z,59.93
2022-09-18T20:58:06.391Z,58.12
2022-09-18T21:00:36.554Z,57.40
2022-09-18T21:03:07.689Z,57.98
2022-09-18T21:05:36.028Z,59.39
2022-09-18T21:08:04.411Z,64.07
2022-09-18T21:10:33.525Z,65.59
2022-09-18T21:13:03.226Z,63.18
2022-09-18T21:15:35.218Z,61.41
2022-09-18T21:18:05.889Z,59.99
2022-09-18T21:20:40.107Z,57.73
2022-09-18T21:23:31.570Z,56.98
2022-09-18T21:26:17.296Z,57.49
2022-09-18T21:28:55.660Z,58.74
2022-09-18T21:31:27.701Z,60.34
2022-09-18T21:33:57.542Z,64.33
2022-09-18T21:36:26.798Z,67.05
2022-09-18T21:38:55.620Z,66.16
2022-09-18T21:41:26.242Z,64.14
2022-09-18T21:43:57.713Z,63.18
2022-09-18T21:46:26.947Z,62.36
2022-09-18T21:48:57.785Z,60.57
2022-09-18T21:51:26.737Z,59.25
2022-09-18T21:53:55.933Z,58.86
2022-09-18T21:56:24.224Z,61.15
2022-09-18T21:58:54.630Z,63.81
2022-09-18T22:05:14.333Z,59.12
2022-09-18T22:07:44.560Z,60.46
2022-09-18T22:10:16.209Z,63.39
2022-09-18T22:12:44.598Z,63.00
2022-09-18T22:15:13.073Z,61.23
2022-09-18T22:17:41.969Z,59.61
2022-09-18T22:20:10.438Z,60.80
2022-09-18T22:22:39.462Z,63.35
2022-09-18T22:25:09.366Z,62.39
2022-09-18T22:27:37.936Z,60.00
2022-09-18T22:30:07.356Z,59.13
2022-09-18T22:32:36.253Z,59.96
2022-09-18T22:35:05.743Z,62.95
2022-09-18T22:37:34.209Z,62.81
2022-09-18T22:40:03.627Z,60.93
2022-09-18T22:42:32.206Z,59.61
2022-09-18T22:45:00.677Z,60.13
2022-09-18T22:47:29.266Z,62.96
2022-09-18T22:49:58.322Z,63.27
2022-09-18T22:52:27.890Z,61.18
2022-09-18T22:54:57.078Z,59.65
2022-09-18T22:57:27.490Z,59.56
2022-09-18T22:59:55.762Z,62.03
2022-09-18T23:02:24.172Z,63.83
2022-09-18T23:04:52.885Z,62.22
2022-09-18T23:07:21.230Z,59.76
2022-09-18T23:09:49.522Z,58.45
2022-09-18T23:12:17.965Z,60.58
2022-09-18T23:14:46.447Z,63.73
2022-09-18T23:17:14.828Z,63.94
2022-09-18T23:19:43.114Z,61.48
2022-09-18T23:22:12.709Z,58.84
2022-09-18T23:24:40.964Z,58.53
2022-09-18T23:27:09.256Z,59.54
2022-09-18T23:29:39.287Z,62.27
2022-09-18T23:32:07.672Z,64.30
2022-09-18T23:34:35.935Z,63.34
2022-09-18T23:37:04.209Z,63.05
2022-09-18T23:39:34.649Z,62.82
2022-09-18T23:42:05.976Z,63.02
2022-09-18T23:44:34.674Z,62.98
2022-09-18T23:47:04.083Z,63.53
2022-09-18T23:49:33.701Z,63.72
2022-09-18T23:52:02.923Z,63.19
2022-09-18T23:54:32.390Z,62.71
2022-09-18T23:57:00.672Z,62.13
2022-09-18T23:59:29.057Z,61.83
